Columbus, Ohio
Traffic Map
Current Weather Conditions
Columbus, Ohio
Few Clouds Haze
Few Clouds
17°
Feels Like: 17°
Wind Chill: 17° Ceiling: Unl
Heat Index: 17° Visibility: 6mi
Dew Point: 12° Wind: 0mph
Humidity: 81% Direction: ° ()
Pressure: 30.22in Gusts: 0mph
Raw Report DataKCMH 101051Z 00000KT 6SM HZ FEW013 M08/M11 A3022 RMK AO2 SLP243 T10831111
Traffic Incident Summary
Active as of:
Severity:
Category:
InformationThere was an issue retrieving the traffic information for this location. Please try a different location or try again shortly.
Advertisements